Time;durP1;ratioP1;P1;durP2;ratioP2;P2;SDS_P1;SDS_P2;PMS_P1;PMS_P2;Temp;Humidity;BMP_temperature;BMP_pressure;BME280_temperature;BME280_humidity;BME280_pressure;Samples;Min_cycle;Max_cycle;Signal;HPM_P1;HPM_P2
2022/09/18 00:01:27;;;;;;;9.57;1.67;;;12.80;99.90;;;;;;5034650;28;20258;-79
2022/09/18 00:03:56;;;;;;;9.80;2.25;;;12.90;99.90;;;;;;5034337;28;20160;-81
2022/09/18 00:06:24;;;;;;;12.88;2.03;;;12.80;99.90;;;;;;5034132;28;20545;-84
2022/09/18 00:08:51;;;;;;;9.45;2.00;;;12.60;99.90;;;;;;5034470;28;20218;-81
2022/09/18 00:11:18;;;;;;;3.60;1.52;;;12.70;99.90;;;;;;5034907;28;20277;-85
2022/09/18 00:13:44;;;;;;;6.97;1.77;;;12.60;99.90;;;;;;5017236;28;20510;-87
2022/09/18 00:16:12;;;;;;;7.43;1.83;;;12.50;99.90;;;;;;5034715;28;20259;-81
2022/09/18 00:18:37;;;;;;;7.10;1.90;;;12.60;99.90;;;;;;5034492;28;20251;-82
2022/09/18 00:21:09;;;;;;;5.78;1.95;;;12.70;99.90;;;;;;5016841;28;20194;-88
2022/09/18 00:23:35;;;;;;;7.88;1.73;;;12.50;99.90;;;;;;5034658;28;20191;-81
2022/09/18 00:26:02;;;;;;;8.05;1.90;;;12.50;99.90;;;;;;5032943;28;20184;-85
2022/09/18 00:28:28;;;;;;;3.85;2.10;;;12.60;99.90;;;;;;5034021;28;20179;-81
2022/09/18 00:30:54;;;;;;;1.92;1.60;;;12.80;99.90;;;;;;5033949;28;20208;-88
2022/09/18 00:33:19;;;;;;;5.65;2.10;;;12.90;99.90;;;;;;5034107;28;20676;-84
2022/09/18 00:35:45;;;;;;;11.95;2.25;;;12.70;99.90;;;;;;5034004;28;20254;-83
2022/09/18 00:38:11;;;;;;;5.47;2.45;;;12.70;99.90;;;;;;5034076;28;20167;-82
2022/09/18 00:40:37;;;;;;;13.27;3.08;;;12.70;99.90;;;;;;5034109;28;20203;-83
2022/09/18 00:43:21;;;;;;;4.05;1.80;;;12.90;99.90;;;;;;5033877;28;20163;-88
2022/09/18 00:46:07;;;;;;;8.73;2.00;;;12.90;99.90;;;;;;5033781;28;20196;-80
2022/09/18 00:48:43;;;;;;;3.78;1.60;;;12.90;99.90;;;;;;5033643;28;20191;-83
2022/09/18 00:51:08;;;;;;;6.32;1.77;;;12.90;99.90;;;;;;5033666;28;20229;-84
2022/09/18 00:53:39;;;;;;;7.43;1.90;;;13.00;99.90;;;;;;5034182;28;20626;-85
2022/09/18 00:56:08;;;;;;;4.20;1.55;;;13.20;99.90;;;;;;5032304;28;20188;-88
2022/09/18 00:58:34;;;;;;;7.38;1.90;;;13.10;99.90;;;;;;5032191;28;20168;-80
2022/09/18 01:01:01;;;;;;;2.45;1.70;;;13.00;99.90;;;;;;5032036;28;20186;-82
2022/09/18 01:03:28;;;;;;;2.40;1.95;;;12.90;99.90;;;;;;5033233;28;20514;-82
2022/09/18 01:06:14;;;;;;;10.07;1.95;;;12.80;99.90;;;;;;5033062;28;20183;-88
2022/09/18 01:09:09;;;;;;;4.05;1.48;;;12.90;99.90;;;;;;5015910;28;20175;-82
2022/09/18 01:11:46;;;;;;;5.30;2.00;;;12.60;99.90;;;;;;5029442;28;20339;-81
2022/09/18 01:14:23;;;;;;;9.50;2.17;;;12.50;99.90;;;;;;5033521;28;20178;-81
2022/09/18 01:17:12;;;;;;;7.85;2.65;;;12.60;99.90;;;;;;5015292;28;20220;-82
2022/09/18 01:20:00;;;;;;;5.25;2.33;;;12.60;99.90;;;;;;5016008;28;20168;-83
2022/09/18 01:23:06;;;;;;;3.08;1.80;;;12.50;99.90;;;;;;5015596;28;20203;-85
2022/09/18 01:25:44;;;;;;;10.52;1.95;;;12.40;99.90;;;;;;5028967;28;20207;-87
2022/09/18 01:28:12;;;;;;;7.90;2.05;;;12.30;99.90;;;;;;5015586;28;20182;-79
2022/09/18 01:30:42;;;;;;;7.30;2.13;;;12.30;99.90;;;;;;5032994;28;20204;-82
2022/09/18 01:33:22;;;;;;;3.00;1.85;;;12.20;99.90;;;;;;5032787;28;20176;-81
2022/09/18 01:35:54;;;;;;;9.65;1.65;;;12.20;99.90;;;;;;5032939;28;20679;-78
2022/09/18 01:38:33;;;;;;;15.20;2.30;;;12.20;99.90;;;;;;5032829;28;20610;-83
2022/09/18 01:41:22;;;;;;;6.97;1.92;;;12.10;99.90;;;;;;5033076;28;20497;-80
2022/09/18 01:44:00;;;;;;;5.93;2.63;;;12.10;99.90;;;;;;5014948;28;20191;-84
2022/09/18 01:46:27;;;;;;;13.20;2.05;;;12.00;99.90;;;;;;5032556;28;20195;-83
2022/09/18 01:49:06;;;;;;;12.80;2.60;;;12.10;99.90;;;;;;5032599;28;20250;-80
2022/09/18 01:51:51;;;;;;;2.85;2.30;;;12.00;99.90;;;;;;5032592;28;20203;-82
2022/09/18 01:54:26;;;;;;;3.72;1.67;;;12.00;99.90;;;;;;5031762;28;20202;-80
2022/09/18 01:56:58;;;;;;;10.32;1.80;;;11.90;99.90;;;;;;5031563;28;20177;-86
2022/09/18 01:59:31;;;;;;;13.43;1.70;;;11.90;99.90;;;;;;5015045;28;20168;-81
2022/09/18 02:01:59;;;;;;;8.95;1.73;;;11.90;99.90;;;;;;5031537;28;20172;-81
2022/09/18 02:04:30;;;;;;;4.97;1.50;;;12.10;99.90;;;;;;5032643;28;20214;-80
2022/09/18 02:07:13;;;;;;;2.65;1.65;;;12.20;99.90;;;;;;5031390;28;20164;-86
2022/09/18 02:09:43;;;;;;;6.25;1.50;;;12.40;99.90;;;;;;5015175;28;20174;-79
2022/09/18 02:12:13;;;;;;;4.35;1.35;;;12.40;99.90;;;;;;5033219;28;20199;-81
2022/09/18 02:14:43;;;;;;;3.85;1.38;;;12.40;99.90;;;;;;5036197;28;20175;-86
2022/09/18 02:17:17;;;;;;;5.55;2.03;;;12.30;99.90;;;;;;5036820;28;20168;-83
2022/09/18 02:19:55;;;;;;;2.95;1.33;;;12.20;99.90;;;;;;5036357;28;20163;-83
2022/09/18 02:22:23;;;;;;;8.23;1.42;;;12.10;99.90;;;;;;5018656;28;20168;-82
2022/09/18 02:24:52;;;;;;;3.30;1.55;;;11.90;99.90;;;;;;5035590;28;20192;-87
2022/09/18 02:27:19;;;;;;;5.93;1.77;;;11.90;99.90;;;;;;5036104;28;20163;-79
2022/09/18 02:29:46;;;;;;;2.28;1.50;;;11.80;99.90;;;;;;5035692;28;20526;-80
2022/09/18 02:32:12;;;;;;;4.55;1.50;;;11.90;99.90;;;;;;5035780;28;20200;-79
2022/09/18 02:34:38;;;;;;;7.13;1.58;;;11.90;99.90;;;;;;5035491;28;20551;-80
2022/09/18 02:37:26;;;;;;;7.20;1.50;;;11.80;99.90;;;;;;5035673;28;20163;-80
2022/09/18 02:40:08;;;;;;;2.40;1.33;;;11.70;99.90;;;;;;5017683;28;20187;-80
2022/09/18 02:43:13;;;;;;;10.18;2.25;;;11.70;99.90;;;;;;5035568;28;20170;-80
2022/09/18 02:45:44;;;;;;;3.30;1.38;;;11.70;99.90;;;;;;5031607;28;20290;-79
2022/09/18 02:48:33;;;;;;;2.38;1.70;;;11.80;99.90;;;;;;5036056;28;20164;-84
2022/09/18 02:51:25;;;;;;;1.55;1.35;;;11.60;99.90;;;;;;5035595;28;20219;-86
2022/09/18 02:54:08;;;;;;;6.15;1.95;;;11.70;99.90;;;;;;5034081;28;20179;-81
2022/09/18 02:56:58;;;;;;;3.75;1.40;;;11.70;99.90;;;;;;5035161;28;20188;-81
2022/09/18 02:59:28;;;;;;;2.53;1.80;;;11.60;99.90;;;;;;5017737;28;20221;-80
2022/09/18 03:01:55;;;;;;;9.18;1.98;;;11.40;99.90;;;;;;5035521;28;20202;-81
2022/09/18 03:04:23;;;;;;;4.68;1.80;;;11.40;99.90;;;;;;5035464;28;20171;-85
2022/09/18 03:06:49;;;;;;;10.50;2.05;;;11.40;99.90;;;;;;5035751;28;20189;-85
2022/09/18 03:09:15;;;;;;;6.72;2.15;;;11.40;99.90;;;;;;5017981;28;20269;-85
2022/09/18 03:11:41;;;;;;;4.35;1.33;;;11.30;99.90;;;;;;5034438;28;20216;-88
2022/09/18 03:14:07;;;;;;;10.40;2.25;;;11.30;99.90;;;;;;5035353;28;20175;-88
2022/09/18 03:16:33;;;;;;;3.72;1.77;;;11.30;99.90;;;;;;5017287;28;20196;-79
2022/09/18 03:18:59;;;;;;;10.02;2.10;;;11.30;99.90;;;;;;5035027;28;20171;-86
2022/09/18 03:21:26;;;;;;;11.90;2.33;;;11.40;99.90;;;;;;5035487;28;20172;-82
2022/09/18 03:23:51;;;;;;;2.75;1.83;;;11.30;99.90;;;;;;5015979;28;20311;-80
2022/09/18 03:26:17;;;;;;;3.33;2.00;;;11.30;99.90;;;;;;5035205;28;20220;-84
2022/09/18 03:28:43;;;;;;;16.35;3.53;;;11.30;99.90;;;;;;5035081;28;20239;-82
2022/09/18 03:31:10;;;;;;;7.28;1.50;;;11.40;99.90;;;;;;5034982;28;20293;-87
2022/09/18 03:33:36;;;;;;;4.13;1.85;;;11.40;99.90;;;;;;5035006;28;20160;-86
2022/09/18 03:36:02;;;;;;;2.55;1.52;;;11.40;99.90;;;;;;5034553;28;20188;-84
2022/09/18 03:38:28;;;;;;;4.03;1.70;;;11.50;99.90;;;;;;5017438;28;20680;-80
2022/09/18 03:40:54;;;;;;;1.90;1.55;;;11.50;99.90;;;;;;5033821;28;20167;-82
2022/09/18 03:43:19;;;;;;;3.90;2.03;;;11.70;99.90;;;;;;5017353;28;20183;-80
2022/09/18 03:45:45;;;;;;;1.98;1.65;;;11.70;99.90;;;;;;5034750;28;20192;-87
2022/09/18 03:48:10;;;;;;;3.80;1.75;;;11.80;99.90;;;;;;5034635;28;20203;-79
2022/09/18 03:50:36;;;;;;;3.05;1.52;;;11.80;99.90;;;;;;5034391;28;20286;-88
2022/09/18 03:53:01;;;;;;;2.35;1.65;;;11.80;99.90;;;;;;5034836;28;20627;-88
2022/09/18 03:55:27;;;;;;;2.35;1.75;;;11.80;99.90;;;;;;5034792;28;20508;-82
2022/09/18 03:57:53;;;;;;;6.55;2.08;;;11.80;99.90;;;;;;5033448;28;20186;-80
2022/09/18 04:00:18;;;;;;;6.35;2.38;;;11.70;99.90;;;;;;5016557;28;20183;-81
2022/09/18 04:02:44;;;;;;;3.67;2.08;;;11.90;99.90;;;;;;5034257;28;20600;-80
2022/09/18 04:05:10;;;;;;;6.72;1.73;;;11.90;99.90;;;;;;5033830;28;20237;-80
2022/09/18 04:07:35;;;;;;;5.07;2.05;;;11.80;99.90;;;;;;5034566;28;20172;-80
2022/09/18 04:10:01;;;;;;;5.10;1.60;;;11.80;99.90;;;;;;5034397;28;20301;-80
2022/09/18 04:12:27;;;;;;;8.65;1.67;;;11.90;99.90;;;;;;5034632;28;20183;-82
2022/09/18 04:14:54;;;;;;;2.53;1.65;;;12.00;99.90;;;;;;5034105;28;20191;-87
2022/09/18 04:17:20;;;;;;;7.30;1.48;;;12.00;99.90;;;;;;5034019;28;20172;-81
2022/09/18 04:19:45;;;;;;;2.55;1.58;;;11.90;99.90;;;;;;5033969;28;20644;-79
2022/09/18 04:22:11;;;;;;;6.88;1.83;;;11.80;99.90;;;;;;5016712;28;20167;-84
2022/09/18 04:24:38;;;;;;;1.55;1.40;;;11.90;99.90;;;;;;5032543;28;20192;-84
2022/09/18 04:27:04;;;;;;;4.63;1.58;;;12.00;99.90;;;;;;5034283;28;20254;-87
2022/09/18 04:29:30;;;;;;;4.53;1.58;;;12.10;99.90;;;;;;5032690;28;20179;-80
2022/09/18 04:31:56;;;;;;;7.43;2.25;;;12.10;99.90;;;;;;5034073;28;20278;-83
2022/09/18 04:34:21;;;;;;;5.28;1.95;;;12.10;99.90;;;;;;5015804;28;20195;-79
2022/09/18 04:36:47;;;;;;;1.50;1.40;;;12.20;99.90;;;;;;5032629;28;20248;-87
2022/09/18 04:39:13;;;;;;;6.78;1.75;;;12.30;99.90;;;;;;5033846;28;20168;-81
2022/09/18 04:41:38;;;;;;;7.55;1.83;;;12.30;99.90;;;;;;5033779;28;20630;-87
2022/09/18 04:44:04;;;;;;;5.68;1.80;;;12.30;99.90;;;;;;5033519;28;20187;-86
2022/09/18 04:46:30;;;;;;;2.20;1.40;;;12.30;99.90;;;;;;5033138;28;20302;-82
2022/09/18 04:48:56;;;;;;;1.95;1.40;;;12.20;99.90;;;;;;5015945;28;20175;-81
2022/09/18 04:51:21;;;;;;;2.60;1.60;;;12.20;99.90;;;;;;5033782;28;20313;-83
2022/09/18 04:53:47;;;;;;;7.47;2.00;;;12.10;99.90;;;;;;5033692;28;20717;-87
2022/09/18 04:56:13;;;;;;;5.72;1.67;;;12.00;99.90;;;;;;5033416;28;20188;-79
2022/09/18 04:58:38;;;;;;;2.85;1.65;;;12.00;99.90;;;;;;5033138;28;20218;-81
2022/09/18 05:01:04;;;;;;;2.08;1.73;;;12.10;99.90;;;;;;5033274;28;20172;-87
2022/09/18 05:03:30;;;;;;;2.00;1.33;;;12.20;99.90;;;;;;5033308;28;20168;-83
2022/09/18 05:05:55;;;;;;;5.55;1.65;;;12.10;99.90;;;;;;5033522;28;20589;-87
2022/09/18 05:08:21;;;;;;;2.85;1.80;;;12.00;99.90;;;;;;5016442;28;20187;-83
2022/09/18 05:10:47;;;;;;;1.30;1.20;;;11.90;99.90;;;;;;5015097;28;20742;-82
2022/09/18 05:13:13;;;;;;;3.42;1.48;;;11.90;99.90;;;;;;5015188;28;20210;-80
2022/09/18 05:15:38;;;;;;;3.00;1.42;;;12.00;99.90;;;;;;5033207;28;20657;-84
2022/09/18 05:18:06;;;;;;;5.25;1.33;;;12.20;99.90;;;;;;5032745;28;20167;-81
2022/09/18 05:20:33;;;;;;;5.47;1.52;;;12.20;99.90;;;;;;5032559;28;20172;-82
2022/09/18 05:22:59;;;;;;;5.80;1.40;;;12.40;99.90;;;;;;5032690;28;20163;-81
2022/09/18 05:25:27;;;;;;;1.88;1.52;;;12.30;99.90;;;;;;5032608;28;20550;-83
2022/09/18 05:28:00;;;;;;;14.27;1.67;;;12.30;99.90;;;;;;5032218;28;20160;-82
2022/09/18 05:30:26;;;;;;;4.75;1.73;;;12.20;99.90;;;;;;5014510;28;20204;-82
2022/09/18 05:32:58;;;;;;;1.67;1.17;;;12.20;99.90;;;;;;5031141;28;20681;-80
2022/09/18 05:35:25;;;;;;;1.92;1.40;;;12.20;99.90;;;;;;5032380;28;20187;-81
2022/09/18 05:37:52;;;;;;;1.30;1.20;;;12.10;99.90;;;;;;5032219;28;20642;-81
2022/09/18 05:40:19;;;;;;;2.08;1.30;;;12.20;99.90;;;;;;5032075;28;20168;-81
2022/09/18 05:42:48;;;;;;;5.53;2.33;;;12.10;99.90;;;;;;5031243;28;20538;-81
2022/09/18 05:45:14;;;;;;;5.28;1.50;;;12.00;99.90;;;;;;5030800;28;20290;-82
2022/09/18 05:47:41;;;;;;;4.22;1.40;;;12.10;99.90;;;;;;5013913;28;20547;-81
2022/09/18 05:50:08;;;;;;;4.55;1.52;;;12.20;99.90;;;;;;5014264;28;20171;-83
2022/09/18 05:52:33;;;;;;;2.85;1.52;;;12.30;99.90;;;;;;5014639;28;20548;-81
2022/09/18 05:54:59;;;;;;;8.25;1.40;;;12.20;99.90;;;;;;5014421;28;20180;-81
2022/09/18 05:57:24;;;;;;;6.75;1.45;;;12.20;99.90;;;;;;5032061;28;21044;-81
2022/09/18 05:59:50;;;;;;;2.22;1.30;;;12.30;99.90;;;;;;5014451;28;20567;-80
2022/09/18 06:02:16;;;;;;;3.58;1.05;;;12.30;99.90;;;;;;5031975;28;20592;-83
2022/09/18 06:04:41;;;;;;;2.65;1.75;;;12.30;99.90;;;;;;5014185;28;20219;-81
2022/09/18 06:07:07;;;;;;;2.22;2.00;;;12.20;99.90;;;;;;5030560;28;20282;-82
2022/09/18 06:09:33;;;;;;;2.47;1.27;;;12.10;99.90;;;;;;5032000;28;20255;-82
2022/09/18 06:11:58;;;;;;;1.13;1.02;;;12.10;99.90;;;;;;5031869;28;20218;-88
2022/09/18 06:14:24;;;;;;;3.78;1.35;;;12.20;99.90;;;;;;5031736;28;20175;-82
2022/09/18 06:16:50;;;;;;;2.92;1.40;;;12.20;99.90;;;;;;5014055;28;20175;-81
2022/09/18 06:19:16;;;;;;;3.97;1.42;;;12.20;99.90;;;;;;5031862;28;20260;-83
2022/09/18 06:21:41;;;;;;;1.85;1.30;;;12.10;99.90;;;;;;5032042;28;20167;-80
2022/09/18 06:24:08;;;;;;;3.33;1.33;;;12.20;99.90;;;;;;5032229;28;20168;-79
2022/09/18 06:26:34;;;;;;;4.30;1.52;;;12.20;99.90;;;;;;5032028;28;20184;-80
2022/09/18 06:28:59;;;;;;;1.83;1.08;;;12.10;99.90;;;;;;5031695;28;20521;-79
2022/09/18 06:31:25;;;;;;;1.90;1.30;;;12.10;99.90;;;;;;5031617;28;20208;-81
2022/09/18 06:33:51;;;;;;;2.45;1.30;;;12.10;99.90;;;;;;5032233;28;20187;-80
2022/09/18 06:36:16;;;;;;;2.22;1.33;;;12.20;99.90;;;;;;5030642;28;20195;-80
2022/09/18 06:38:42;;;;;;;2.33;1.30;;;12.20;99.90;;;;;;5031722;28;20175;-79
2022/09/18 06:41:08;;;;;;;2.13;1.33;;;12.20;99.90;;;;;;5030494;28;20210;-79
2022/09/18 06:43:35;;;;;;;2.08;1.17;;;12.40;99.90;;;;;;5031193;28;20178;-80
2022/09/18 06:46:00;;;;;;;1.83;1.50;;;12.50;99.90;;;;;;5031407;28;20184;-80
2022/09/18 06:48:28;;;;;;;2.65;1.15;;;12.70;99.90;;;;;;5031400;28;20183;-82
2022/09/18 06:50:55;;;;;;;4.53;1.30;;;12.80;99.90;;;;;;5013748;28;20231;-85
2022/09/18 06:53:22;;;;;;;6.40;1.60;;;13.10;99.90;;;;;;5014479;28;20270;-80
2022/09/18 06:55:48;;;;;;;3.03;1.20;;;13.10;99.90;;;;;;5031478;28;20662;-79
2022/09/18 06:58:16;;;;;;;14.07;1.65;;;13.20;99.90;;;;;;5033867;28;20172;-80
2022/09/18 07:00:42;;;;;;;7.35;1.45;;;13.30;99.90;;;;;;5017477;28;20230;-80
2022/09/18 07:03:08;;;;;;;2.28;1.13;;;13.40;99.90;;;;;;5035108;28;20168;-80
2022/09/18 07:05:33;;;;;;;1.55;1.08;;;13.40;99.90;;;;;;5034887;28;20215;-79
2022/09/18 07:08:00;;;;;;;9.02;1.58;;;13.40;99.90;;;;;;5035206;28;20250;-84
2022/09/18 07:10:26;;;;;;;5.72;1.23;;;13.40;99.90;;;;;;5033695;28;20549;-80
2022/09/18 07:12:59;;;;;;;1.75;1.33;;;13.50;99.90;;;;;;5034889;28;20164;-79
2022/09/18 07:15:25;;;;;;;3.55;1.48;;;13.60;99.90;;;;;;5035031;28;20208;-79
2022/09/18 07:17:55;;;;;;;1.83;1.52;;;13.60;99.90;;;;;;5035253;28;20170;-80
2022/09/18 07:20:20;;;;;;;3.75;1.13;;;13.70;99.90;;;;;;5034628;28;20176;-79
2022/09/18 07:22:59;;;;;;;2.58;1.40;;;13.80;99.90;;;;;;5017257;28;20271;-81
2022/09/18 07:25:27;;;;;;;2.25;1.23;;;14.00;99.90;;;;;;5032833;28;20215;-80
2022/09/18 07:27:53;;;;;;;4.95;1.60;;;14.10;99.90;;;;;;5015998;28;20202;-81
2022/09/18 07:30:19;;;;;;;2.03;1.13;;;14.20;99.90;;;;;;5034932;28;20634;-81
2022/09/18 07:32:45;;;;;;;4.20;1.23;;;14.40;99.90;;;;;;5035884;28;20584;-80
2022/09/18 07:35:11;;;;;;;3.00;1.50;;;14.30;99.90;;;;;;5035928;28;20184;-80
2022/09/18 07:37:37;;;;;;;4.25;1.65;;;14.30;99.90;;;;;;5035004;28;20257;-79
2022/09/18 07:40:04;;;;;;;7.20;1.23;;;14.20;99.90;;;;;;5034570;28;20172;-80
2022/09/18 07:42:30;;;;;;;1.25;1.08;;;14.30;99.90;;;;;;5016823;28;20704;-81
2022/09/18 07:44:56;;;;;;;2.47;1.52;;;14.20;99.90;;;;;;5033746;28;20254;-80
2022/09/18 07:47:24;;;;;;;2.35;1.23;;;14.20;99.90;;;;;;5034261;28;20208;-83
2022/09/18 07:49:49;;;;;;;2.85;1.77;;;14.20;99.90;;;;;;5034035;28;20171;-80
2022/09/18 07:52:15;;;;;;;1.60;1.50;;;14.30;99.90;;;;;;5034194;28;20550;-85
2022/09/18 07:54:40;;;;;;;4.50;1.95;;;14.50;99.90;;;;;;5034039;28;20569;-81
2022/09/18 07:57:06;;;;;;;6.70;4.38;;;14.50;99.90;;;;;;5016374;28;20658;-82
2022/09/18 07:59:32;;;;;;;10.45;6.03;;;14.60;99.90;;;;;;5034111;28;20218;-82
2022/09/18 08:01:57;;;;;;;6.75;4.00;;;14.70;99.90;;;;;;5034725;28;20226;-85
2022/09/18 08:04:23;;;;;;;5.72;4.30;;;14.80;99.90;;;;;;5035077;28;20183;-87
2022/09/18 08:06:53;;;;;;;10.05;2.53;;;14.80;99.90;;;;;;5017661;28;20247;-86
2022/09/18 08:09:20;;;;;;;5.95;1.50;;;14.80;99.90;;;;;;5017655;28;20182;-87
2022/09/18 08:11:46;;;;;;;3.47;1.67;;;14.90;99.90;;;;;;5035308;28;20210;-85
2022/09/18 08:14:11;;;;;;;4.82;2.30;;;14.80;99.90;;;;;;5017677;28;20160;-85
2022/09/18 08:16:37;;;;;;;1.77;1.45;;;14.60;99.90;;;;;;5016683;28;20573;-84
2022/09/18 08:19:02;;;;;;;1.42;1.30;;;14.60;99.90;;;;;;5032685;28;20167;-81
2022/09/18 08:21:29;;;;;;;3.75;1.50;;;14.70;99.90;;;;;;5032725;28;20729;-79
2022/09/18 08:23:56;;;;;;;2.88;1.40;;;14.70;99.90;;;;;;5010609;28;20223;-82
2022/09/18 08:26:21;;;;;;;6.45;1.98;;;14.70;99.90;;;;;;5013882;28;20671;-81
2022/09/18 08:28:47;;;;;;;3.92;1.60;;;14.90;99.90;;;;;;5033350;28;20160;-86
2022/09/18 08:31:13;;;;;;;5.80;1.30;;;15.00;99.90;;;;;;5015968;28;20199;-81
2022/09/18 08:33:39;;;;;;;5.93;1.42;;;15.10;99.90;;;;;;5011142;28;20180;-81
2022/09/18 08:36:06;;;;;;;4.25;1.65;;;15.10;99.90;;;;;;5015425;28;20705;-81
2022/09/18 08:38:32;;;;;;;4.93;1.27;;;15.30;99.90;;;;;;5033709;28;20160;-79
2022/09/18 08:41:24;;;;;;;16.73;1.40;;;15.40;99.90;;;;;;5033216;28;20622;-80
2022/09/18 08:43:52;;;;;;;7.30;1.83;;;15.30;99.90;;;;;;5015505;28;20206;-81
2022/09/18 08:46:37;;;;;;;5.07;1.48;;;15.40;99.90;;;;;;5033290;28;20191;-80
2022/09/18 08:49:08;;;;;;;3.90;1.60;;;15.30;99.90;;;;;;5015497;28;20621;-80
2022/09/18 08:51:52;;;;;;;5.85;1.35;;;15.40;99.90;;;;;;5033475;28;20290;-80
2022/09/18 08:54:26;;;;;;;12.82;2.20;;;15.50;99.90;;;;;;5033474;28;20593;-80
2022/09/18 08:56:54;;;;;;;5.65;1.80;;;15.60;99.90;;;;;;5015652;28;20171;-80
2022/09/18 08:59:36;;;;;;;13.13;1.85;;;15.70;99.90;;;;;;5033210;28;20171;-79
2022/09/18 09:02:26;;;;;;;2.85;1.40;;;15.90;99.90;;;;;;5033492;28;20164;-80
2022/09/18 09:04:56;;;;;;;2.58;1.15;;;15.90;99.90;;;;;;5033276;28;20238;-79
2022/09/18 09:07:36;;;;;;;4.75;1.38;;;16.10;99.90;;;;;;5033477;28;20167;-79
2022/09/18 09:10:19;;;;;;;2.92;1.40;;;15.80;99.90;;;;;;5033478;28;20168;-79
2022/09/18 09:13:12;;;;;;;3.60;1.23;;;15.70;99.90;;;;;;5033331;28;20266;-80
2022/09/18 09:16:07;;;;;;;2.95;1.52;;;15.90;99.90;;;;;;5033095;28;20235;-80
2022/09/18 09:18:57;;;;;;;2.85;1.52;;;16.10;99.90;;;;;;5033353;28;20511;-80
2022/09/18 09:22:09;;;;;;;3.08;1.13;;;16.20;99.90;;;;;;5032144;28;20695;-80
2022/09/18 09:24:46;;;;;;;1.98;1.20;;;16.20;99.90;;;;;;4917838;29;20539;-79
2022/09/18 09:27:29;;;;;;;4.50;1.33;;;16.20;99.90;;;;;;5020825;28;20183;-79
2022/09/18 09:30:05;;;;;;;2.47;1.30;;;16.20;99.90;;;;;;5032696;28;20199;-80
2022/09/18 09:32:41;;;;;;;5.72;1.30;;;16.10;99.90;;;;;;5014728;28;20703;-80
2022/09/18 09:35:26;;;;;;;2.17;1.40;;;15.90;99.90;;;;;;5032573;28;20200;-79
2022/09/18 09:37:53;;;;;;;4.60;2.28;;;16.10;99.90;;;;;;5032544;28;20199;-79
2022/09/18 09:40:21;;;;;;;10.05;1.20;;;16.10;99.90;;;;;;5014963;28;20202;-80
2022/09/18 09:42:54;;;;;;;5.13;1.50;;;16.10;99.90;;;;;;5032720;28;20194;-80
2022/09/18 09:45:34;;;;;;;6.22;1.40;;;16.10;99.90;;;;;;5032092;28;20207;-80
2022/09/18 09:48:10;;;;;;;6.85;1.75;;;16.10;99.90;;;;;;5032378;28;20171;-79
2022/09/18 09:51:02;;;;;;;4.85;1.42;;;16.40;99.90;;;;;;5032270;28;20287;-82
2022/09/18 09:53:28;;;;;;;2.15;1.10;;;16.40;99.90;;;;;;5032191;28;20459;-81
2022/09/18 09:56:23;;;;;;;1.95;1.00;;;16.50;99.90;;;;;;5032681;28;20720;-81
2022/09/18 09:58:57;;;;;;;3.53;2.05;;;16.20;99.90;;;;;;5032473;28;20206;-85
2022/09/18 10:01:34;;;;;;;7.20;2.25;;;16.10;99.90;;;;;;5033005;28;20250;-85
2022/09/18 10:04:15;;;;;;;1.95;1.20;;;16.30;99.90;;;;;;5015102;28;20179;-85
2022/09/18 10:07:06;;;;;;;2.35;1.40;;;16.30;99.90;;;;;;5032279;28;20190;-80
2022/09/18 10:09:42;;;;;;;2.92;2.13;;;16.40;99.90;;;;;;5032445;28;20199;-80
2022/09/18 10:12:45;;;;;;;5.88;2.45;;;16.60;99.90;;;;;;5014448;28;20215;-81
2022/09/18 10:15:38;;;;;;;2.25;1.17;;;16.80;99.90;;;;;;5032393;28;20226;-83
2022/09/18 10:18:08;;;;;;;3.30;1.25;;;16.90;99.90;;;;;;5033113;28;20160;-85
2022/09/18 10:20:35;;;;;;;2.65;0.93;;;17.10;99.90;;;;;;5032743;28;20195;-81
2022/09/18 10:23:12;;;;;;;4.18;1.17;;;17.50;99.90;;;;;;5032662;28;20168;-85
2022/09/18 10:25:48;;;;;;;6.45;1.35;;;17.40;99.90;;;;;;5032961;28;20199;-80
2022/09/18 10:28:14;;;;;;;6.07;1.38;;;17.40;99.90;;;;;;5014023;28;20214;-81
2022/09/18 10:31:03;;;;;;;2.72;1.10;;;17.70;99.90;;;;;;5031790;28;20282;-88
2022/09/18 10:33:39;;;;;;;3.03;1.30;;;17.50;99.90;;;;;;5019618;28;20168;-83
2022/09/18 10:36:11;;;;;;;2.95;1.52;;;17.60;99.90;;;;;;5035869;28;20256;-84
2022/09/18 10:38:38;;;;;;;2.80;1.30;;;17.30;99.90;;;;;;5036288;28;20243;-93
2022/09/18 10:41:23;;;;;;;3.97;1.40;;;17.40;99.90;;;;;;5036540;28;20176;-85
2022/09/18 10:43:56;;;;;;;3.60;1.10;;;17.30;99.90;;;;;;5037826;28;20192;-93
2022/09/18 10:46:28;;;;;;;1.80;1.23;;;17.30;99.90;;;;;;5018506;28;20188;-84
2022/09/18 10:48:56;;;;;;;1.73;1.27;;;17.00;99.90;;;;;;5018581;28;20175;-84
2022/09/18 10:51:24;;;;;;;4.28;1.67;;;17.00;99.90;;;;;;5018742;28;20214;-83
2022/09/18 10:54:21;;;;;;;3.53;1.27;;;17.20;99.90;;;;;;5019803;28;20176;-86
2022/09/18 10:56:47;;;;;;;4.25;1.60;;;17.00;99.90;;;;;;5021283;28;20572;-87
2022/09/18 10:59:28;;;;;;;1.42;1.25;;;17.20;99.90;;;;;;5041222;28;20634;-91
2022/09/18 11:01:59;;;;;;;3.08;1.25;;;17.10;99.90;;;;;;5024039;28;20168;-94
2022/09/18 11:04:27;;;;;;;1.48;1.38;;;17.20;99.90;;;;;;5005930;28;20179;-84
2022/09/18 11:06:55;;;;;;;1.83;1.30;;;17.20;99.90;;;;;;5017999;28;20184;-85
2022/09/18 11:09:37;;;;;;;5.38;1.60;;;17.30;99.90;;;;;;5017723;28;20168;-83
2022/09/18 11:12:04;;;;;;;1.20;1.10;;;17.30;99.90;;;;;;5018157;28;20211;-83
2022/09/18 11:14:38;;;;;;;1.88;1.30;;;17.40;99.90;;;;;;5017426;28;20650;-83
2022/09/18 11:17:04;;;;;;;4.20;3.78;;;17.40;99.90;;;;;;5018086;28;20167;-85
2022/09/18 11:19:38;;;;;;;8.70;4.93;;;17.40;99.90;;;;;;5017173;28;20190;-85
2022/09/18 11:22:24;;;;;;;3.38;1.83;;;17.60;99.90;;;;;;5017500;28;20172;-84
2022/09/18 11:25:28;;;;;;;4.72;1.10;;;17.60;99.90;;;;;;5017132;28;20195;-84
2022/09/18 11:27:55;;;;;;;11.25;1.65;;;17.80;99.90;;;;;;5016973;28;20171;-84
2022/09/18 11:30:33;;;;;;;5.45;1.33;;;17.70;99.90;;;;;;5035091;28;20160;-84
2022/09/18 11:33:20;;;;;;;7.63;1.50;;;17.60;99.90;;;;;;5002018;28;20216;-81
2022/09/18 11:35:54;;;;;;;1.83;1.30;;;17.50;99.90;;;;;;5034653;28;20227;-82
2022/09/18 11:38:20;;;;;;;3.95;1.45;;;17.50;99.90;;;;;;5034874;28;20164;-81
2022/09/18 11:40:50;;;;;;;10.80;1.40;;;17.40;99.90;;;;;;5034824;28;20171;-85
2022/09/18 11:43:32;;;;;;;9.65;2.33;;;17.40;99.90;;;;;;5017247;28;20168;-85
2022/09/18 11:46:37;;;;;;;3.65;3.15;;;17.20;99.90;;;;;;5034858;28;20187;-85
2022/09/18 11:49:14;;;;;;;2.17;1.10;;;17.30;99.90;;;;;;5012909;28;20187;-85
2022/09/18 11:51:52;;;;;;;3.60;1.95;;;17.40;99.90;;;;;;5018155;28;20602;-84
2022/09/18 11:54:39;;;;;;;3.10;2.40;;;17.30;99.90;;;;;;5036061;28;20164;-85
2022/09/18 11:57:17;;;;;;;2.83;0.90;;;17.30;99.90;;;;;;5017290;28;20249;-84
2022/09/18 11:59:50;;;;;;;0.95;0.80;;;17.30;99.90;;;;;;5035107;28;20164;-87
2022/09/18 12:02:31;;;;;;;1.80;0.80;;;17.50;99.90;;;;;;5017297;28;20180;-85
2022/09/18 12:05:03;;;;;;;1.92;1.13;;;17.50;99.90;;;;;;5017329;28;21222;-85
2022/09/18 12:08:08;;;;;;;3.95;2.20;;;17.30;99.90;;;;;;5035678;28;20160;-86
2022/09/18 12:10:55;;;;;;;1.02;0.80;;;17.40;99.90;;;;;;5018518;28;20199;-85
2022/09/18 12:14:00;;;;;;;1.08;0.60;;;17.50;99.90;;;;;;5018133;28;20178;-86
2022/09/18 12:16:32;;;;;;;2.05;0.60;;;17.40;99.90;;;;;;5016788;28;20195;-87
2022/09/18 12:19:07;;;;;;;1.45;1.10;;;17.60;99.90;;;;;;5032254;28;20179;-87
2022/09/18 12:21:52;;;;;;;2.63;1.38;;;18.00;99.90;;;;;;5032239;28;20163;-87
2022/09/18 12:24:18;;;;;;;6.30;1.23;;;18.20;99.90;;;;;;5032569;28;20180;-87
2022/09/18 12:27:25;;;;;;;13.77;3.22;;;18.30;99.90;;;;;;5033465;28;20172;-86
2022/09/18 12:30:12;;;;;;;1.35;0.80;;;18.30;99.90;;;;;;4988797;28;20187;-89
2022/09/18 12:33:09;;;;;;;0.52;0.52;;;18.30;99.90;;;;;;5033666;28;20217;-86
2022/09/18 12:36:01;;;;;;;0.47;0.47;;;17.80;99.90;;;;;;5027052;28;20234;-86
2022/09/18 12:38:56;;;;;;;2.42;0.60;;;17.40;99.90;;;;;;5016816;28;20537;-86
2022/09/18 12:41:49;;;;;;;2.63;0.80;;;17.10;99.90;;;;;;5017401;28;20199;-87
2022/09/18 12:44:39;;;;;;;0.47;0.47;;;17.20;99.90;;;;;;5016334;28;20192;-87
2022/09/18 12:47:44;;;;;;;1.20;0.65;;;17.30;99.90;;;;;;5016857;28;20657;-86
2022/09/18 12:50:29;;;;;;;2.05;1.85;;;17.40;99.90;;;;;;4999220;28;20294;-87
2022/09/18 12:52:55;;;;;;;4.30;1.40;;;17.30;99.90;;;;;;5017023;28;20276;-86
2022/09/18 12:55:43;;;;;;;4.55;3.03;;;17.30;99.90;;;;;;5016170;28;20736;-86
2022/09/18 12:58:46;;;;;;;1.83;0.95;;;17.40;99.90;;;;;;5034166;28;20225;-87
2022/09/18 13:01:40;;;;;;;1.02;0.77;;;17.60;99.90;;;;;;5016406;28;20262;-90
2022/09/18 13:04:43;;;;;;;1.45;0.50;;;17.90;99.90;;;;;;5016846;28;20600;-87
2022/09/18 13:07:26;;;;;;;1.30;0.68;;;18.00;99.90;;;;;;5016268;28;20181;-87
2022/09/18 13:10:10;;;;;;;3.70;0.77;;;17.80;99.90;;;;;;5016540;28;20179;-88
2022/09/18 13:13:01;;;;;;;0.60;0.40;;;17.60;99.90;;;;;;5016118;28;20217;-87
2022/09/18 13:15:33;;;;;;;1.75;0.60;;;17.40;99.90;;;;;;5015852;28;20196;-87